Baltic Frost — 9HA2868 — position and weather

sailwx.info

Track history (hours):
 
Tides and Currents Weather Stations Pressure Air Temp Water Temp Dewpoint Dewpoint Depression Visibility Wind Speed Wind Dir Waves Ship Positions

Baltic Frost

Last reported at 2017-Nov-18 19:30 UTC. Time now 2017-Nov-18 19:59 UTC.
Position N 58°26' E 005°19'.

Length 183 m; draft 11 m.

Type: Ship. MMSI: 256495000.

Date/timePositionNaut miles runAvg speedWind from/ knotsBaromVisibWave heightAir tempDewpointWater temp
2017-Nov-18 19:30N 58°26' E 005°19'3 6.2
2017-Nov-18 19:00N 58°24' E 005°23'3 6.2
2017-Nov-18 18:30N 58°21' E 005°26'3 5.8
2017-Nov-18 18:00N 58°19' E 005°29'3 6.5
2017-Nov-18 17:30N 58°17' E 005°33'3 6.6
2017-Nov-18 17:00N 58°14' E 005°38'3 6.5
2017-Nov-18 16:30N 58°12' E 005°43'3 6.7
2017-Nov-18 15:59N 58°10' E 005°47'3 6.6
2017-Nov-18 15:30N 58°08' E 005°52'3 6.5
2017-Nov-18 15:00N 58°06' E 005°57'4 7.2
2017-Nov-18 14:30N 58°03' E 006°02'4 7.5
2017-Nov-18 14:00N 58°01' E 006°07'4 7.5
2017-Nov-18 13:30N 57°59' E 006°13'4 8.1
2017-Nov-18 13:00N 57°56' E 006°19'4 8.0
2017-Nov-18 12:30N 57°53' E 006°24'4 8.0
2017-Nov-18 12:00N 57°51' E 006°30'4 8.6
2017-Nov-18 11:30N 57°48' E 006°36'5 9.4
2017-Nov-18 11:00N 57°47' E 006°45'5 9.5
2017-Nov-18 10:30N 57°46' E 006°53'5 9.6
2017-Nov-18 10:00N 57°45' E 007°02'5 9.7
2017-Nov-18 09:30N 57°45' E 007°11'510.6
2017-Nov-18 09:00N 57°45' E 007°21'510.2
2017-Nov-18 08:30N 57°45' E 007°31'510.9
2017-Nov-18 08:00N 57°45' E 007°41'611.2
2017-Nov-18 07:29N 57°45' E 007°52'611.6
2017-Nov-18 07:00N 57°45' E 008°02'510.6
2017-Nov-18 06:30N 57°46' E 008°12'70 9.6
2017-Nov-17 23:14N 57°50' E 010°23'3 9.2
2017-Nov-17 22:56N 57°50' E 010°28'4 9.5
2017-Nov-17 22:30N 57°50' E 010°36'5 9.7
2017-Nov-17 22:00N 57°50' E 010°45'5 9.6
2017-Nov-17 21:30N 57°48' E 010°54'510.8
2017-Nov-17 21:00N 57°46' E 011°02'611.4
2017-Nov-17 20:30N 57°43' E 011°12'611.3
2017-Nov-17 20:00N 57°40' E 011°21'611.8
2017-Nov-17 19:30N 57°37' E 011°31'5 9.7
2017-Nov-17 19:00N 57°35' E 011°39'4 8.5
2017-Nov-17 18:30N 57°39' E 011°42'4 8.3
2017-Nov-17 18:00N 57°41' E 011°49'2 4.4
2017-Nov-17 17:30N 57°41' E 011°53'0 0.0
2017-Nov-17 17:00N 57°41' E 011°53'0 0.0
2017-Nov-17 16:30N 57°41' E 011°53'0 0.0
2017-Nov-17 16:00N 57°41' E 011°53'0 0.0
2017-Nov-17 15:30N 57°41' E 011°53'0 0.0
2017-Nov-17 15:00N 57°41' E 011°53'0 0.0
2017-Nov-17 14:29N 57°41' E 011°53'0 0.0
2017-Nov-17 13:59N 57°41' E 011°53'0 0.0
2017-Nov-17 13:29N 57°41' E 011°53'0 0.0
2017-Nov-17 12:59N 57°41' E 011°53'0 0.0
2017-Nov-17 12:29N 57°41' E 011°53'0 0.0
2017-Nov-17 11:58N 57°41' E 011°53'0 0.0
2017-Nov-17 11:28N 57°41' E 011°53'0 0.0
2017-Nov-17 10:58N 57°41' E 011°53'0 0.0
2017-Nov-17 10:28N 57°41' E 011°53'0 0.0
2017-Nov-17 10:00N 57°41' E 011°53'0 0.0
2017-Nov-17 09:30N 57°41' E 011°53'0 0.0
2017-Nov-17 09:00N 57°41' E 011°53'0 0.0
2017-Nov-17 08:30N 57°41' E 011°53'0 0.0
2017-Nov-17 08:00N 57°41' E 011°53'0 0.0
2017-Nov-17 07:29N 57°41' E 011°53'0 0.0
2017-Nov-17 06:59N 57°41' E 011°53'0 0.0
2017-Nov-17 06:29N 57°41' E 011°53'0 0.0
2017-Nov-17 05:59N 57°41' E 011°53'0 0.0
2017-Nov-17 05:28N 57°41' E 011°53'0 0.0
2017-Nov-17 04:58N 57°41' E 011°53'0 0.0
2017-Nov-17 04:28N 57°41' E 011°53'0 0.0
2017-Nov-17 03:58N 57°41' E 011°53'0 0.0
2017-Nov-17 03:28N 57°41' E 011°53'0 0.0
2017-Nov-17 03:00N 57°41' E 011°53'0 0.0
2017-Nov-17 02:30N 57°41' E 011°53'0 0.0
2017-Nov-17 01:54N 57°41' E 011°53'0 0.0
2017-Nov-17 01:30N 57°41' E 011°53'0 0.0
2017-Nov-17 01:00N 57°41' E 011°53'0 0.0
2017-Nov-17 00:29N 57°41' E 011°53'0 0.0
2017-Nov-16 23:59N 57°41' E 011°53'0 0.0
2017-Nov-16 23:29N 57°41' E 011°53'0 0.0
2017-Nov-16 22:59N 57°41' E 011°53'0 0.0
2017-Nov-16 22:28N 57°41' E 011°53'0 0.0
2017-Nov-16 21:58N 57°41' E 011°53'0 0.0
2017-Nov-16 21:28N 57°41' E 011°53'0 0.0
2017-Nov-16 21:00N 57°41' E 011°53'0 0.0
2017-Nov-16 20:28N 57°41' E 011°53'0 0.0
2017-Nov-16 20:00N 57°41' E 011°53'0 0.0
2017-Nov-16 19:27N 57°41' E 011°53'0 0.0
2017-Nov-16 19:00N 57°41' E 011°53'0 0.0
2017-Nov-16 18:30N 57°41' E 011°53'0 0.0
2017-Nov-16 18:00N 57°41' E 011°53'0 0.0
2017-Nov-16 17:29N 57°41' E 011°53'0 0.0
2017-Nov-16 16:59N 57°41' E 011°53'0 0.0
2017-Nov-16 16:29N 57°41' E 011°53'0 0.0
2017-Nov-16 15:59N 57°41' E 011°53'0 0.0
2017-Nov-16 15:28N 57°41' E 011°53'0 0.0
2017-Nov-16 14:55N 57°41' E 011°53'0 0.0
2017-Nov-16 14:28N 57°41' E 011°53'0 0.0
2017-Nov-16 13:55N 57°41' E 011°53'0 0.0
2017-Nov-16 13:28N 57°41' E 011°53'0 0.0
2017-Nov-16 13:00N 57°41' E 011°53'0 0.0
2017-Nov-16 12:30N 57°41' E 011°53'0 0.0
2017-Nov-16 11:57N 57°41' E 011°53'0 0.0
2017-Nov-16 11:27N 57°41' E 011°53'0 0.0
2017-Nov-16 11:00N 57°41' E 011°53'0 0.0
2017-Nov-16 10:29N 57°41' E 011°53'0 0.0
2017-Nov-16 09:59N 57°41' E 011°53'0 0.0
2017-Nov-16 09:29N 57°41' E 011°53'0 0.0
2017-Nov-16 08:59N 57°41' E 011°53'0 0.0
2017-Nov-16 08:28N 57°41' E 011°53'0 0.0
2017-Nov-16 07:58N 57°41' E 011°53'0 0.0
2017-Nov-16 07:28N 57°41' E 011°53'0 0.0
2017-Nov-16 06:58N 57°41' E 011°53'0 0.0
2017-Nov-16 06:28N 57°41' E 011°53'0 0.0
2017-Nov-16 06:00N 57°41' E 011°53'0 0.0
2017-Nov-16 05:30N 57°41' E 011°53'0 0.0
2017-Nov-16 05:00N 57°41' E 011°53'0 0.0
2017-Nov-16 04:30N 57°41' E 011°53'0 0.0
2017-Nov-16 03:59N 57°41' E 011°53'0 0.0
2017-Nov-16 03:29N 57°41' E 011°53'0 0.0
2017-Nov-16 02:59N 57°41' E 011°53'0 0.0
2017-Nov-16 02:29N 57°41' E 011°53'0 0.0
2017-Nov-16 01:56N 57°41' E 011°53'0 0.0
2017-Nov-16 01:28N 57°41' E 011°53'0 0.0
2017-Nov-16 00:58N 57°41' E 011°53'0 0.0
2017-Nov-16 00:28N 57°41' E 011°53'0 0.0
2017-Nov-15 23:58N 57°41' E 011°53'0 0.0
2017-Nov-15 23:31N 57°41' E 011°53'0 0.0
2017-Nov-15 23:00N 57°41' E 011°53'0 0.0
2017-Nov-15 22:30N 57°41' E 011°53'0 0.0
2017-Nov-15 22:00N 57°41' E 011°53'0 0.0
2017-Nov-15 21:30N 57°41' E 011°53'0 0.0
2017-Nov-15 20:59N 57°41' E 011°53'0 0.0
2017-Nov-15 20:29N 57°41' E 011°53'0 0.0
2017-Nov-15 19:59N 57°41' E 011°53'0 0.0
2017-Nov-15 19:29N 57°41' E 011°53'0 0.0
2017-Nov-15 18:59N 57°41' E 011°53'0 0.0
2017-Nov-15 18:28N 57°41' E 011°53'0 0.0
2017-Nov-15 17:58N 57°41' E 011°53'0 0.0
2017-Nov-15 17:28N 57°41' E 011°53'0 0.0
2017-Nov-15 16:58N 57°41' E 011°53'0 0.0
2017-Nov-15 16:31N 57°41' E 011°53'0 0.0
2017-Nov-15 16:00N 57°41' E 011°53'0 0.0
2017-Nov-15 15:30N 57°41' E 011°53'0 0.0
2017-Nov-15 15:00N 57°41' E 011°53'0 0.0
2017-Nov-15 14:30N 57°41' E 011°53'0 0.0
2017-Nov-15 13:59N 57°41' E 011°53'0 0.0
2017-Nov-15 13:29N 57°41' E 011°53'0 0.0
2017-Nov-15 12:59N 57°41' E 011°53'0 0.0
2017-Nov-15 12:26N 57°41' E 011°53'0 0.0
2017-Nov-15 11:58N 57°41' E 011°53'0 0.0
2017-Nov-15 11:25N 57°41' E 011°53'0 0.0
2017-Nov-15 10:58N 57°41' E 011°53'0 0.0
2017-Nov-15 10:28N 57°41' E 011°53'0 0.0
2017-Nov-15 09:58N 57°41' E 011°53'0 0.0
2017-Nov-15 09:30N 57°41' E 011°53'0 0.0
2017-Nov-15 09:00N 57°41' E 011°53'0 0.0
2017-Nov-15 08:30N 57°41' E 011°53'0 0.0
2017-Nov-15 08:00N 57°41' E 011°53'0 0.0
2017-Nov-15 07:30N 57°41' E 011°53'0 0.0
2017-Nov-15 06:59N 57°41' E 011°53'0 0.0
2017-Nov-15 06:29N 57°41' E 011°53'0 0.0
2017-Nov-15 05:59N 57°41' E 011°53'0 0.0
2017-Nov-15 05:29N 57°41' E 011°53'0 0.0
2017-Nov-15 04:59N 57°41' E 011°53'0 0.0
2017-Nov-15 04:28N 57°41' E 011°53'0 0.0
2017-Nov-15 03:55N 57°41' E 011°53'0 0.0
2017-Nov-15 03:28N 57°41' E 011°53'0 0.0
2017-Nov-15 02:58N 57°41' E 011°53'0 0.0
2017-Nov-15 02:30N 57°41' E 011°53'0 0.0
2017-Nov-15 02:00N 57°41' E 011°53'0 0.7
2017-Nov-15 01:30N 57°41' E 011°52'3 5.3
2017-Nov-15 01:00N 57°40' E 011°48'611.3
2017-Nov-15 00:31N 57°36' E 011°40'3 5.8
2017-Nov-15 00:00N 57°33' E 011°39'0 0.5
2017-Nov-14 23:30N 57°33' E 011°39'0 0.0
2017-Nov-14 23:00N 57°33' E 011°39'0 0.0
2017-Nov-14 22:29N 57°33' E 011°39'0 0.0
2017-Nov-14 21:59N 57°33' E 011°39'0 0.0
2017-Nov-14 21:29N 57°33' E 011°39'0 0.1
2017-Nov-14 20:59N 57°33' E 011°39'0 0.0
2017-Nov-14 20:29N 57°33' E 011°39'0 0.0
2017-Nov-14 19:55N 57°33' E 011°39'0 0.0
2017-Nov-14 19:28N 57°33' E 011°39'0 0.0
2017-Nov-14 18:58N 57°33' E 011°39'0 0.0
2017-Nov-14 18:28N 57°33' E 011°39'0 0.0
2017-Nov-14 18:00N 57°33' E 011°39'0 0.1
2017-Nov-14 17:30N 57°33' E 011°39'0 0.1
2017-Nov-14 17:00N 57°33' E 011°39'0 0.1
2017-Nov-14 16:30N 57°33' E 011°39'0 0.1
2017-Nov-14 15:47N 57°33' E 011°39'0 0.0
2017-Nov-14 15:29N 57°33' E 011°39'0 0.0
2017-Nov-14 14:59N 57°33' E 011°39'0 0.0
2017-Nov-14 14:29N 57°33' E 011°39'0 0.0
2017-Nov-14 13:59N 57°33' E 011°39'0 0.0
2017-Nov-14 13:28N 57°33' E 011°39'0 0.0
2017-Nov-14 12:55N 57°33' E 011°39'0 0.0
2017-Nov-14 12:28N 57°33' E 011°39'0 0.0
2017-Nov-14 11:58N 57°33' E 011°39'0 0.0
2017-Nov-14 11:28N 57°33' E 011°39'0 0.0
2017-Nov-14 10:57N 57°33' E 011°39'0 0.0
2017-Nov-14 10:30N 57°33' E 011°39'0 0.0
2017-Nov-14 10:00N 57°33' E 011°39'0 0.0
2017-Nov-14 09:30N 57°33' E 011°39'0 0.0
2017-Nov-14 08:59N 57°33' E 011°39'0 0.0
2017-Nov-14 08:29N 57°33' E 011°39'0 0.0
2017-Nov-14 07:59N 57°33' E 011°39'0 0.0
2017-Nov-14 07:29N 57°33' E 011°39'0 0.0
2017-Nov-14 06:59N 57°33' E 011°39'0 0.0
2017-Nov-14 06:28N 57°33' E 011°39'0 0.0
2017-Nov-14 05:58N 57°33' E 011°39'0 0.0
2017-Nov-14 05:28N 57°33' E 011°39'0 0.0
2017-Nov-14 04:58N 57°33' E 011°39'0 0.0
2017-Nov-14 04:24N 57°33' E 011°39'0 0.1
2017-Nov-14 04:00N 57°33' E 011°39'0 0.0
2017-Nov-14 03:24N 57°33' E 011°39'0 0.1
2017-Nov-14 02:57N 57°33' E 011°39'0 0.0
2017-Nov-14 02:30N 57°33' E 011°39'0 0.0
2017-Nov-14 01:59N 57°33' E 011°39'0 0.1
2017-Nov-14 01:29N 57°33' E 011°39'0 0.0
2017-Nov-14 00:59N 57°33' E 011°39'0 0.0
2017-Nov-14 00:29N 57°33' E 011°39'0 0.0
2017-Nov-13 23:59N 57°33' E 011°39'0 0.0
2017-Nov-13 23:28N 57°33' E 011°39'0 0.0
2017-Nov-13 22:58N 57°33' E 011°39'0 0.0
2017-Nov-13 22:25N 57°33' E 011°39'0 0.0
2017-Nov-13 21:58N 57°33' E 011°39'85 4.2
2017-Nov-13 01:32N 57°29' E 009°01'113.0
2017-Nov-13 01:29N 57°29' E 008°60'712.9
2017-Nov-13 00:59N 57°25' E 008°50'613.0
2017-Nov-13 00:30N 57°22' E 008°41'713.2
2017-Nov-13 00:00N 57°18' E 008°30'10912.3
2017-Nov-12 15:06N 55°40' E 007°03'112.3
2017-Nov-12 15:00N 55°39' E 007°02'612.5
2017-Nov-12 14:30N 55°34' E 006°54'712.7
2017-Nov-12 13:58N 55°30' E 006°46'612.8
2017-Nov-12 13:28N 55°25' E 006°39'612.9
2017-Nov-12 13:00N 55°20' E 006°31'26212.7
2017-Nov-11 16:25N 51°41' E 002°31'813.3
2017-Nov-11 15:49N 51°35' E 002°23'413.2
2017-Nov-11 15:30N 51°31' E 002°18'712.7
2017-Nov-11 14:55N 51°25' E 002°12'512.6
2017-Nov-11 14:31N 51°20' E 002°09'612.4
2017-Nov-11 14:00N 51°14' E 002°06'612.1
2017-Nov-11 13:30N 51°11' E 001°58'612.4
2017-Nov-11 13:01N 51°08' E 001°49'612.3
2017-Nov-11 12:31N 51°03' E 001°42'611.4
2017-Nov-11 12:00N 50°60' E 001°35'612.3
2017-Nov-11 11:31N 50°55' E 001°30'5611.9
2017-Nov-11 06:49N 50°23' E 000°17'413.2
2017-Nov-11 06:29N 50°22' E 000°11'613.3
2017-Nov-11 06:00N 50°20' E 000°01'713.3
2017-Nov-11 05:30N 50°18' W 000°09'713.4
2017-Nov-11 05:00N 50°16' W 000°19'713.6
2017-Nov-11 04:30N 50°15' W 000°29'714.1
2017-Nov-11 04:00N 50°13' W 000°40'814.5
2017-Nov-11 03:29N 50°11' W 000°51'1015.2
2017-Nov-11 02:49N 50°08' W 001°06'515.7
2017-Nov-11 02:30N 50°07' W 001°14'816.0
2017-Nov-11 02:00N 50°04' W 001°26'816.3
2017-Nov-11 01:30N 50°02' W 001°38'816.6
2017-Nov-11 01:00N 49°60' W 001°50'816.9
2017-Nov-11 00:30N 49°58' W 002°03'2815.9
2017-Nov-10 22:45N 49°50' W 002°45'415.2
2017-Nov-10 22:29N 49°49' W 002°51'1114.9
2017-Nov-10 21:46N 49°48' W 003°07'414.8
2017-Nov-10 21:28N 49°48' W 003°14'714.8
2017-Nov-10 21:00N 49°47' W 003°25'714.7
2017-Nov-10 20:30N 49°47' W 003°36'814.4
2017-Nov-10 19:58N 49°47' W 003°48'2414.2
2017-Nov-10 18:17N 49°46' W 004°25'3113.8
2017-Nov-10 16:03N 49°47' W 005°13'5510.8
2017-Nov-10 10:57N 50°35' W 005°53'1015.4
2017-Nov-10 10:17N 50°44' W 005°46'513.8
2017-Nov-10 09:56N 50°49' W 005°43'612.4
2017-Nov-10 09:26N 50°55' W 005°39'613.2
2017-Nov-10 09:00N 50°60' W 005°36'713.8
2017-Nov-10 08:29N 51°06' W 005°32'815.8
2017-Nov-10 07:58N 51°14' W 005°27'511.8
2017-Nov-10 07:30N 51°19' W 005°24'714.0
2017-Nov-10 07:00N 51°25' W 005°20'714.1
2017-Nov-10 06:30N 51°32' W 005°16'713.6
2017-Nov-10 06:00N 51°38' W 005°12'5 9.1
2017-Nov-10 05:30N 51°42' W 005°07'3 6.2
2017-Nov-10 05:00N 51°42' W 005°02'0 0.0
2017-Nov-10 04:28N 51°42' W 005°02'0 0.0
2017-Nov-10 03:58N 51°42' W 005°02'0 0.0
2017-Nov-10 03:28N 51°42' W 005°02'0 0.0
2017-Nov-10 02:58N 51°42' W 005°02'0 0.0
2017-Nov-10 02:28N 51°42' W 005°02'0 0.0
2017-Nov-10 02:00N 51°42' W 005°02'0 0.0
2017-Nov-10 01:30N 51°42' W 005°02'0 0.0
2017-Nov-10 01:00N 51°42' W 005°02'0 0.0
2017-Nov-10 00:30N 51°42' W 005°02'0 0.0
2017-Nov-10 00:00N 51°42' W 005°02'0 0.0
2017-Nov-09 23:29N 51°42' W 005°02'0 0.0
2017-Nov-09 22:59N 51°42' W 005°02'0 0.0
2017-Nov-09 22:29N 51°42' W 005°02'0 0.0
2017-Nov-09 21:59N 51°42' W 005°02'0 0.0
2017-Nov-09 21:28N 51°42' W 005°02'0 0.0
2017-Nov-09 20:58N 51°42' W 005°02'0 0.0
2017-Nov-09 20:28N 51°42' W 005°02'0 0.0
2017-Nov-09 19:58N 51°42' W 005°02'0 0.0
2017-Nov-09 19:28N 51°42' W 005°02'0 0.0
2017-Nov-09 19:00N 51°42' W 005°02'0 0.0
2017-Nov-09 18:30N 51°42' W 005°02'0 0.0
2017-Nov-09 18:00N 51°42' W 005°02'0 0.0
2017-Nov-09 17:30N 51°42' W 005°02'0 0.0
2017-Nov-09 17:00N 51°42' W 005°02'0 0.0
2017-Nov-09 16:29N 51°42' W 005°02'0 0.0
2017-Nov-09 15:59N 51°42' W 005°02'0 0.0
2017-Nov-09 15:29N 51°42' W 005°02'0 0.0
2017-Nov-09 14:59N 51°42' W 005°02'0 0.0
2017-Nov-09 14:28N 51°42' W 005°02'0 0.0
2017-Nov-09 13:58N 51°42' W 005°02'0 0.0
2017-Nov-09 13:28N 51°42' W 005°02'0 0.0
2017-Nov-09 12:58N 51°42' W 005°02'0 0.0
2017-Nov-09 12:28N 51°42' W 005°02'0 0.0
2017-Nov-09 11:57N 51°42' W 005°02'0 0.0
2017-Nov-09 11:27N 51°42' W 005°02'0 0.0
2017-Nov-09 10:57N 51°42' W 005°02'0 0.0
2017-Nov-09 10:27N 51°42' W 005°02'0 0.0
2017-Nov-09 10:00N 51°42' W 005°02'0 0.0
2017-Nov-09 09:29N 51°42' W 005°02'0 0.0
2017-Nov-09 08:59N 51°42' W 005°02'0 0.0
2017-Nov-09 08:29N 51°42' W 005°02'0 0.0
2017-Nov-09 07:59N 51°42' W 005°02'0 0.0
2017-Nov-09 07:28N 51°42' W 005°02'0 0.0
2017-Nov-09 06:58N 51°42' W 005°02'0 0.0
2017-Nov-09 06:28N 51°42' W 005°02'0 0.0
2017-Nov-09 05:58N 51°42' W 005°02'0 0.0
2017-Nov-09 05:28N 51°42' W 005°02'0 0.0
2017-Nov-09 05:00N 51°42' W 005°02'0 0.0
2017-Nov-09 04:30N 51°42' W 005°02'0 0.0
2017-Nov-09 04:00N 51°42' W 005°02'0 0.0
2017-Nov-09 03:30N 51°42' W 005°02'0 0.0
2017-Nov-09 02:59N 51°42' W 005°02'0 0.0
2017-Nov-09 02:29N 51°42' W 005°02'0 0.0
2017-Nov-09 01:59N 51°42' W 005°02'0 0.0
2017-Nov-09 01:29N 51°42' W 005°02'0 0.0
2017-Nov-09 00:59N 51°42' W 005°02'0 0.0
2017-Nov-09 00:28N 51°42' W 005°02'0 0.0
2017-Nov-08 23:58N 51°42' W 005°02'0 0.0
2017-Nov-08 23:28N 51°42' W 005°02'0 0.0
2017-Nov-08 22:58N 51°42' W 005°02'0 0.0
2017-Nov-08 22:31N 51°42' W 005°02'0 0.0
2017-Nov-08 22:00N 51°42' W 005°02'0 0.0
2017-Nov-08 21:30N 51°42' W 005°02'0 0.0
2017-Nov-08 21:00N 51°42' W 005°02'0 0.0
2017-Nov-08 20:30N 51°42' W 005°02'0 0.0
2017-Nov-08 19:59N 51°42' W 005°02'  
Track history (hours):
 
Tides and Currents Weather Stations Pressure Air Temp Water Temp Dewpoint Dewpoint Depression Visibility Wind Speed Wind Dir Waves Ship Positions

Baltic Frost

Last reported at 2017-Nov-18 19:30 UTC. Time now 2017-Nov-18 19:59 UTC.
Position N 58°26' E 005°19'.

Length 183 m; draft 11 m.

Type: Ship. MMSI: 256495000.

Date/timePositionNaut miles runAvg speedWind from/ knotsBaromVisibWave heightAir tempDewpointWater temp
2017-Nov-18 19:30N 58°26' E 005°19'3 6.2
2017-Nov-18 19:00N 58°24' E 005°23'3 6.2
2017-Nov-18 18:30N 58°21' E 005°26'3 5.8
2017-Nov-18 18:00N 58°19' E 005°29'3 6.5
2017-Nov-18 17:30N 58°17' E 005°33'3 6.6
2017-Nov-18 17:00N 58°14' E 005°38'3 6.5
2017-Nov-18 16:30N 58°12' E 005°43'3 6.7
2017-Nov-18 15:59N 58°10' E 005°47'3 6.6
2017-Nov-18 15:30N 58°08' E 005°52'3 6.5
2017-Nov-18 15:00N 58°06' E 005°57'4 7.2
2017-Nov-18 14:30N 58°03' E 006°02'4 7.5
2017-Nov-18 14:00N 58°01' E 006°07'4 7.5
2017-Nov-18 13:30N 57°59' E 006°13'4 8.1
2017-Nov-18 13:00N 57°56' E 006°19'4 8.0
2017-Nov-18 12:30N 57°53' E 006°24'4 8.0
2017-Nov-18 12:00N 57°51' E 006°30'4 8.6
2017-Nov-18 11:30N 57°48' E 006°36'5 9.4
2017-Nov-18 11:00N 57°47' E 006°45'5 9.5
2017-Nov-18 10:30N 57°46' E 006°53'5 9.6
2017-Nov-18 10:00N 57°45' E 007°02'5 9.7
2017-Nov-18 09:30N 57°45' E 007°11'510.6
2017-Nov-18 09:00N 57°45' E 007°21'510.2
2017-Nov-18 08:30N 57°45' E 007°31'510.9
2017-Nov-18 08:00N 57°45' E 007°41'611.2
2017-Nov-18 07:29N 57°45' E 007°52'611.6
2017-Nov-18 07:00N 57°45' E 008°02'510.6
2017-Nov-18 06:30N 57°46' E 008°12'70 9.6
2017-Nov-17 23:14N 57°50' E 010°23'3 9.2
2017-Nov-17 22:56N 57°50' E 010°28'4 9.5
2017-Nov-17 22:30N 57°50' E 010°36'5 9.7
2017-Nov-17 22:00N 57°50' E 010°45'5 9.6
2017-Nov-17 21:30N 57°48' E 010°54'510.8
2017-Nov-17 21:00N 57°46' E 011°02'611.4
2017-Nov-17 20:30N 57°43' E 011°12'611.3
2017-Nov-17 20:00N 57°40' E 011°21'611.8
2017-Nov-17 19:30N 57°37' E 011°31'5 9.7
2017-Nov-17 19:00N 57°35' E 011°39'4 8.5
2017-Nov-17 18:30N 57°39' E 011°42'4 8.3
2017-Nov-17 18:00N 57°41' E 011°49'2 4.4
2017-Nov-17 17:30N 57°41' E 011°53'0 0.0
2017-Nov-17 17:00N 57°41' E 011°53'0 0.0
2017-Nov-17 16:30N 57°41' E 011°53'0 0.0
2017-Nov-17 16:00N 57°41' E 011°53'0 0.0
2017-Nov-17 15:30N 57°41' E 011°53'0 0.0
2017-Nov-17 15:00N 57°41' E 011°53'0 0.0
2017-Nov-17 14:29N 57°41' E 011°53'0 0.0
2017-Nov-17 13:59N 57°41' E 011°53'0 0.0
2017-Nov-17 13:29N 57°41' E 011°53'0 0.0
2017-Nov-17 12:59N 57°41' E 011°53'0 0.0
2017-Nov-17 12:29N 57°41' E 011°53'0 0.0
2017-Nov-17 11:58N 57°41' E 011°53'0 0.0
2017-Nov-17 11:28N 57°41' E 011°53'0 0.0
2017-Nov-17 10:58N 57°41' E 011°53'0 0.0
2017-Nov-17 10:28N 57°41' E 011°53'0 0.0
2017-Nov-17 10:00N 57°41' E 011°53'0 0.0
2017-Nov-17 09:30N 57°41' E 011°53'0 0.0
2017-Nov-17 09:00N 57°41' E 011°53'0 0.0
2017-Nov-17 08:30N 57°41' E 011°53'0 0.0
2017-Nov-17 08:00N 57°41' E 011°53'0 0.0
2017-Nov-17 07:29N 57°41' E 011°53'0 0.0
2017-Nov-17 06:59N 57°41' E 011°53'0 0.0
2017-Nov-17 06:29N 57°41' E 011°53'0 0.0
2017-Nov-17 05:59N 57°41' E 011°53'0 0.0
2017-Nov-17 05:28N 57°41' E 011°53'0 0.0
2017-Nov-17 04:58N 57°41' E 011°53'0 0.0
2017-Nov-17 04:28N 57°41' E 011°53'0 0.0
2017-Nov-17 03:58N 57°41' E 011°53'0 0.0
2017-Nov-17 03:28N 57°41' E 011°53'0 0.0
2017-Nov-17 03:00N 57°41' E 011°53'0 0.0
2017-Nov-17 02:30N 57°41' E 011°53'0 0.0
2017-Nov-17 01:54N 57°41' E 011°53'0 0.0
2017-Nov-17 01:30N 57°41' E 011°53'0 0.0
2017-Nov-17 01:00N 57°41' E 011°53'0 0.0
2017-Nov-17 00:29N 57°41' E 011°53'0 0.0
2017-Nov-16 23:59N 57°41' E 011°53'0 0.0
2017-Nov-16 23:29N 57°41' E 011°53'0 0.0
2017-Nov-16 22:59N 57°41' E 011°53'0 0.0
2017-Nov-16 22:28N 57°41' E 011°53'0 0.0
2017-Nov-16 21:58N 57°41' E 011°53'0 0.0
2017-Nov-16 21:28N 57°41' E 011°53'0 0.0
2017-Nov-16 21:00N 57°41' E 011°53'0 0.0
2017-Nov-16 20:28N 57°41' E 011°53'0 0.0
2017-Nov-16 20:00N 57°41' E 011°53'0 0.0
2017-Nov-16 19:27N 57°41' E 011°53'0 0.0
2017-Nov-16 19:00N 57°41' E 011°53'0 0.0
2017-Nov-16 18:30N 57°41' E 011°53'0 0.0
2017-Nov-16 18:00N 57°41' E 011°53'0 0.0
2017-Nov-16 17:29N 57°41' E 011°53'0 0.0
2017-Nov-16 16:59N 57°41' E 011°53'0 0.0
2017-Nov-16 16:29N 57°41' E 011°53'0 0.0
2017-Nov-16 15:59N 57°41' E 011°53'0 0.0
2017-Nov-16 15:28N 57°41' E 011°53'0 0.0
2017-Nov-16 14:55N 57°41' E 011°53'0 0.0
2017-Nov-16 14:28N 57°41' E 011°53'0 0.0
2017-Nov-16 13:55N 57°41' E 011°53'0 0.0
2017-Nov-16 13:28N 57°41' E 011°53'0 0.0
2017-Nov-16 13:00N 57°41' E 011°53'0 0.0
2017-Nov-16 12:30N 57°41' E 011°53'0 0.0
2017-Nov-16 11:57N 57°41' E 011°53'0 0.0
2017-Nov-16 11:27N 57°41' E 011°53'0 0.0
2017-Nov-16 11:00N 57°41' E 011°53'0 0.0
2017-Nov-16 10:29N 57°41' E 011°53'0 0.0
2017-Nov-16 09:59N 57°41' E 011°53'0 0.0
2017-Nov-16 09:29N 57°41' E 011°53'0 0.0
2017-Nov-16 08:59N 57°41' E 011°53'0 0.0
2017-Nov-16 08:28N 57°41' E 011°53'0 0.0
2017-Nov-16 07:58N 57°41' E 011°53'0 0.0
2017-Nov-16 07:28N 57°41' E 011°53'0 0.0
2017-Nov-16 06:58N 57°41' E 011°53'0 0.0
2017-Nov-16 06:28N 57°41' E 011°53'0 0.0
2017-Nov-16 06:00N 57°41' E 011°53'0 0.0
2017-Nov-16 05:30N 57°41' E 011°53'0 0.0
2017-Nov-16 05:00N 57°41' E 011°53'0 0.0
2017-Nov-16 04:30N 57°41' E 011°53'0 0.0
2017-Nov-16 03:59N 57°41' E 011°53'0 0.0
2017-Nov-16 03:29N 57°41' E 011°53'0 0.0
2017-Nov-16 02:59N 57°41' E 011°53'0 0.0
2017-Nov-16 02:29N 57°41' E 011°53'0 0.0
2017-Nov-16 01:56N 57°41' E 011°53'0 0.0
2017-Nov-16 01:28N 57°41' E 011°53'0 0.0
2017-Nov-16 00:58N 57°41' E 011°53'0 0.0
2017-Nov-16 00:28N 57°41' E 011°53'0 0.0
2017-Nov-15 23:58N 57°41' E 011°53'0 0.0
2017-Nov-15 23:31N 57°41' E 011°53'0 0.0
2017-Nov-15 23:00N 57°41' E 011°53'0 0.0
2017-Nov-15 22:30N 57°41' E 011°53'0 0.0
2017-Nov-15 22:00N 57°41' E 011°53'0 0.0
2017-Nov-15 21:30N 57°41' E 011°53'0 0.0
2017-Nov-15 20:59N 57°41' E 011°53'0 0.0
2017-Nov-15 20:29N 57°41' E 011°53'0 0.0
2017-Nov-15 19:59N 57°41' E 011°53'0 0.0
2017-Nov-15 19:29N 57°41' E 011°53'0 0.0
2017-Nov-15 18:59N 57°41' E 011°53'0 0.0
2017-Nov-15 18:28N 57°41' E 011°53'0 0.0
2017-Nov-15 17:58N 57°41' E 011°53'0 0.0
2017-Nov-15 17:28N 57°41' E 011°53'0 0.0
2017-Nov-15 16:58N 57°41' E 011°53'0 0.0
2017-Nov-15 16:31N 57°41' E 011°53'0 0.0
2017-Nov-15 16:00N 57°41' E 011°53'0 0.0
2017-Nov-15 15:30N 57°41' E 011°53'0 0.0
2017-Nov-15 15:00N 57°41' E 011°53'0 0.0
2017-Nov-15 14:30N 57°41' E 011°53'0 0.0
2017-Nov-15 13:59N 57°41' E 011°53'0 0.0
2017-Nov-15 13:29N 57°41' E 011°53'0 0.0
2017-Nov-15 12:59N 57°41' E 011°53'0 0.0
2017-Nov-15 12:26N 57°41' E 011°53'0 0.0
2017-Nov-15 11:58N 57°41' E 011°53'0 0.0
2017-Nov-15 11:25N 57°41' E 011°53'0 0.0
2017-Nov-15 10:58N 57°41' E 011°53'0 0.0
2017-Nov-15 10:28N 57°41' E 011°53'0 0.0
2017-Nov-15 09:58N 57°41' E 011°53'0 0.0
2017-Nov-15 09:30N 57°41' E 011°53'0 0.0
2017-Nov-15 09:00N 57°41' E 011°53'0 0.0
2017-Nov-15 08:30N 57°41' E 011°53'0 0.0
2017-Nov-15 08:00N 57°41' E 011°53'0 0.0
2017-Nov-15 07:30N 57°41' E 011°53'0 0.0
2017-Nov-15 06:59N 57°41' E 011°53'0 0.0
2017-Nov-15 06:29N 57°41' E 011°53'0 0.0
2017-Nov-15 05:59N 57°41' E 011°53'0 0.0
2017-Nov-15 05:29N 57°41' E 011°53'0 0.0
2017-Nov-15 04:59N 57°41' E 011°53'0 0.0
2017-Nov-15 04:28N 57°41' E 011°53'0 0.0
2017-Nov-15 03:55N 57°41' E 011°53'0 0.0
2017-Nov-15 03:28N 57°41' E 011°53'0 0.0
2017-Nov-15 02:58N 57°41' E 011°53'0 0.0
2017-Nov-15 02:30N 57°41' E 011°53'0 0.0
2017-Nov-15 02:00N 57°41' E 011°53'0 0.7
2017-Nov-15 01:30N 57°41' E 011°52'3 5.3
2017-Nov-15 01:00N 57°40' E 011°48'611.3
2017-Nov-15 00:31N 57°36' E 011°40'3 5.8
2017-Nov-15 00:00N 57°33' E 011°39'0 0.5
2017-Nov-14 23:30N 57°33' E 011°39'0 0.0
2017-Nov-14 23:00N 57°33' E 011°39'0 0.0
2017-Nov-14 22:29N 57°33' E 011°39'0 0.0
2017-Nov-14 21:59N 57°33' E 011°39'0 0.0
2017-Nov-14 21:29N 57°33' E 011°39'0 0.1
2017-Nov-14 20:59N 57°33' E 011°39'0 0.0
2017-Nov-14 20:29N 57°33' E 011°39'0 0.0
2017-Nov-14 19:55N 57°33' E 011°39'0 0.0
2017-Nov-14 19:28N 57°33' E 011°39'0 0.0
2017-Nov-14 18:58N 57°33' E 011°39'0 0.0
2017-Nov-14 18:28N 57°33' E 011°39'0 0.0
2017-Nov-14 18:00N 57°33' E 011°39'0 0.1
2017-Nov-14 17:30N 57°33' E 011°39'0 0.1
2017-Nov-14 17:00N 57°33' E 011°39'0 0.1
2017-Nov-14 16:30N 57°33' E 011°39'0 0.1
2017-Nov-14 15:47N 57°33' E 011°39'0 0.0
2017-Nov-14 15:29N 57°33' E 011°39'0 0.0
2017-Nov-14 14:59N 57°33' E 011°39'0 0.0
2017-Nov-14 14:29N 57°33' E 011°39'0 0.0
2017-Nov-14 13:59N 57°33' E 011°39'0 0.0
2017-Nov-14 13:28N 57°33' E 011°39'0 0.0
2017-Nov-14 12:55N 57°33' E 011°39'0 0.0
2017-Nov-14 12:28N 57°33' E 011°39'0 0.0
2017-Nov-14 11:58N 57°33' E 011°39'0 0.0
2017-Nov-14 11:28N 57°33' E 011°39'0 0.0
2017-Nov-14 10:57N 57°33' E 011°39'0 0.0
2017-Nov-14 10:30N 57°33' E 011°39'0 0.0
2017-Nov-14 10:00N 57°33' E 011°39'0 0.0
2017-Nov-14 09:30N 57°33' E 011°39'0 0.0
2017-Nov-14 08:59N 57°33' E 011°39'0 0.0
2017-Nov-14 08:29N 57°33' E 011°39'0 0.0
2017-Nov-14 07:59N 57°33' E 011°39'0 0.0
2017-Nov-14 07:29N 57°33' E 011°39'0 0.0
2017-Nov-14 06:59N 57°33' E 011°39'0 0.0
2017-Nov-14 06:28N 57°33' E 011°39'0 0.0
2017-Nov-14 05:58N 57°33' E 011°39'0 0.0
2017-Nov-14 05:28N 57°33' E 011°39'0 0.0
2017-Nov-14 04:58N 57°33' E 011°39'0 0.0
2017-Nov-14 04:24N 57°33' E 011°39'0 0.1
2017-Nov-14 04:00N 57°33' E 011°39'0 0.0
2017-Nov-14 03:24N 57°33' E 011°39'0 0.1
2017-Nov-14 02:57N 57°33' E 011°39'0 0.0
2017-Nov-14 02:30N 57°33' E 011°39'0 0.0
2017-Nov-14 01:59N 57°33' E 011°39'0 0.1
2017-Nov-14 01:29N 57°33' E 011°39'0 0.0
2017-Nov-14 00:59N 57°33' E 011°39'0 0.0
2017-Nov-14 00:29N 57°33' E 011°39'0 0.0
2017-Nov-13 23:59N 57°33' E 011°39'0 0.0
2017-Nov-13 23:28N 57°33' E 011°39'0 0.0
2017-Nov-13 22:58N 57°33' E 011°39'0 0.0
2017-Nov-13 22:25N 57°33' E 011°39'0 0.0
2017-Nov-13 21:58N 57°33' E 011°39'85 4.2
2017-Nov-13 01:32N 57°29' E 009°01'113.0
2017-Nov-13 01:29N 57°29' E 008°60'712.9
2017-Nov-13 00:59N 57°25' E 008°50'613.0
2017-Nov-13 00:30N 57°22' E 008°41'713.2
2017-Nov-13 00:00N 57°18' E 008°30'10912.3
2017-Nov-12 15:06N 55°40' E 007°03'112.3
2017-Nov-12 15:00N 55°39' E 007°02'612.5
2017-Nov-12 14:30N 55°34' E 006°54'712.7
2017-Nov-12 13:58N 55°30' E 006°46'612.8
2017-Nov-12 13:28N 55°25' E 006°39'612.9
2017-Nov-12 13:00N 55°20' E 006°31'26212.7
2017-Nov-11 16:25N 51°41' E 002°31'813.3
2017-Nov-11 15:49N 51°35' E 002°23'413.2
2017-Nov-11 15:30N 51°31' E 002°18'712.7
2017-Nov-11 14:55N 51°25' E 002°12'512.6
2017-Nov-11 14:31N 51°20' E 002°09'612.4
2017-Nov-11 14:00N 51°14' E 002°06'612.1
2017-Nov-11 13:30N 51°11' E 001°58'612.4
2017-Nov-11 13:01N 51°08' E 001°49'612.3
2017-Nov-11 12:31N 51°03' E 001°42'611.4
2017-Nov-11 12:00N 50°60' E 001°35'612.3
2017-Nov-11 11:31N 50°55' E 001°30'5611.9
2017-Nov-11 06:49N 50°23' E 000°17'413.2
2017-Nov-11 06:29N 50°22' E 000°11'613.3
2017-Nov-11 06:00N 50°20' E 000°01'713.3
2017-Nov-11 05:30N 50°18' W 000°09'713.4
2017-Nov-11 05:00N 50°16' W 000°19'713.6
2017-Nov-11 04:30N 50°15' W 000°29'714.1
2017-Nov-11 04:00N 50°13' W 000°40'814.5
2017-Nov-11 03:29N 50°11' W 000°51'1015.2
2017-Nov-11 02:49N 50°08' W 001°06'515.7
2017-Nov-11 02:30N 50°07' W 001°14'816.0
2017-Nov-11 02:00N 50°04' W 001°26'816.3
2017-Nov-11 01:30N 50°02' W 001°38'816.6
2017-Nov-11 01:00N 49°60' W 001°50'816.9
2017-Nov-11 00:30N 49°58' W 002°03'2815.9
2017-Nov-10 22:45N 49°50' W 002°45'415.2
2017-Nov-10 22:29N 49°49' W 002°51'1114.9
2017-Nov-10 21:46N 49°48' W 003°07'414.8
2017-Nov-10 21:28N 49°48' W 003°14'714.8
2017-Nov-10 21:00N 49°47' W 003°25'714.7
2017-Nov-10 20:30N 49°47' W 003°36'814.4
2017-Nov-10 19:58N 49°47' W 003°48'2414.2
2017-Nov-10 18:17N 49°46' W 004°25'3113.8
2017-Nov-10 16:03N 49°47' W 005°13'5510.8
2017-Nov-10 10:57N 50°35' W 005°53'1015.4
2017-Nov-10 10:17N 50°44' W 005°46'513.8
2017-Nov-10 09:56N 50°49' W 005°43'612.4
2017-Nov-10 09:26N 50°55' W 005°39'613.2
2017-Nov-10 09:00N 50°60' W 005°36'713.8
2017-Nov-10 08:29N 51°06' W 005°32'815.8
2017-Nov-10 07:58N 51°14' W 005°27'511.8
2017-Nov-10 07:30N 51°19' W 005°24'714.0
2017-Nov-10 07:00N 51°25' W 005°20'714.1
2017-Nov-10 06:30N 51°32' W 005°16'713.6
2017-Nov-10 06:00N 51°38' W 005°12'5 9.1
2017-Nov-10 05:30N 51°42' W 005°07'3 6.2
2017-Nov-10 05:00N 51°42' W 005°02'0 0.0
2017-Nov-10 04:28N 51°42' W 005°02'0 0.0
2017-Nov-10 03:58N 51°42' W 005°02'0 0.0
2017-Nov-10 03:28N 51°42' W 005°02'0 0.0
2017-Nov-10 02:58N 51°42' W 005°02'0 0.0
2017-Nov-10 02:28N 51°42' W 005°02'0 0.0
2017-Nov-10 02:00N 51°42' W 005°02'0 0.0
2017-Nov-10 01:30N 51°42' W 005°02'0 0.0
2017-Nov-10 01:00N 51°42' W 005°02'0 0.0
2017-Nov-10 00:30N 51°42' W 005°02'0 0.0
2017-Nov-10 00:00N 51°42' W 005°02'0 0.0
2017-Nov-09 23:29N 51°42' W 005°02'0 0.0
2017-Nov-09 22:59N 51°42' W 005°02'0 0.0
2017-Nov-09 22:29N 51°42' W 005°02'0 0.0
2017-Nov-09 21:59N 51°42' W 005°02'0 0.0
2017-Nov-09 21:28N 51°42' W 005°02'0 0.0
2017-Nov-09 20:58N 51°42' W 005°02'0 0.0
2017-Nov-09 20:28N 51°42' W 005°02'0 0.0
2017-Nov-09 19:58N 51°42' W 005°02'0 0.0
2017-Nov-09 19:28N 51°42' W 005°02'0 0.0
2017-Nov-09 19:00N 51°42' W 005°02'0 0.0
2017-Nov-09 18:30N 51°42' W 005°02'0 0.0
2017-Nov-09 18:00N 51°42' W 005°02'0 0.0
2017-Nov-09 17:30N 51°42' W 005°02'0 0.0
2017-Nov-09 17:00N 51°42' W 005°02'0 0.0
2017-Nov-09 16:29N 51°42' W 005°02'0 0.0
2017-Nov-09 15:59N 51°42' W 005°02'0 0.0
2017-Nov-09 15:29N 51°42' W 005°02'0 0.0
2017-Nov-09 14:59N 51°42' W 005°02'0 0.0
2017-Nov-09 14:28N 51°42' W 005°02'0 0.0
2017-Nov-09 13:58N 51°42' W 005°02'0 0.0
2017-Nov-09 13:28N 51°42' W 005°02'0 0.0
2017-Nov-09 12:58N 51°42' W 005°02'0 0.0
2017-Nov-09 12:28N 51°42' W 005°02'0 0.0
2017-Nov-09 11:57N 51°42' W 005°02'0 0.0
2017-Nov-09 11:27N 51°42' W 005°02'0 0.0
2017-Nov-09 10:57N 51°42' W 005°02'0 0.0
2017-Nov-09 10:27N 51°42' W 005°02'0 0.0
2017-Nov-09 10:00N 51°42' W 005°02'0 0.0
2017-Nov-09 09:29N 51°42' W 005°02'0 0.0
2017-Nov-09 08:59N 51°42' W 005°02'0 0.0
2017-Nov-09 08:29N 51°42' W 005°02'0 0.0
2017-Nov-09 07:59N 51°42' W 005°02'0 0.0
2017-Nov-09 07:28N 51°42' W 005°02'0 0.0
2017-Nov-09 06:58N 51°42' W 005°02'0 0.0
2017-Nov-09 06:28N 51°42' W 005°02'0 0.0
2017-Nov-09 05:58N 51°42' W 005°02'0 0.0
2017-Nov-09 05:28N 51°42' W 005°02'0 0.0
2017-Nov-09 05:00N 51°42' W 005°02'0 0.0
2017-Nov-09 04:30N 51°42' W 005°02'0 0.0
2017-Nov-09 04:00N 51°42' W 005°02'0 0.0
2017-Nov-09 03:30N 51°42' W 005°02'0 0.0
2017-Nov-09 02:59N 51°42' W 005°02'0 0.0
2017-Nov-09 02:29N 51°42' W 005°02'0 0.0
2017-Nov-09 01:59N 51°42' W 005°02'0 0.0
2017-Nov-09 01:29N 51°42' W 005°02'0 0.0
2017-Nov-09 00:59N 51°42' W 005°02'0 0.0
2017-Nov-09 00:28N 51°42' W 005°02'0 0.0
2017-Nov-08 23:58N 51°42' W 005°02'0 0.0
2017-Nov-08 23:28N 51°42' W 005°02'0 0.0
2017-Nov-08 22:58N 51°42' W 005°02'0 0.0
2017-Nov-08 22:31N 51°42' W 005°02'0 0.0
2017-Nov-08 22:00N 51°42' W 005°02'0 0.0
2017-Nov-08 21:30N 51°42' W 005°02'0 0.0
2017-Nov-08 21:00N 51°42' W 005°02'0 0.0
2017-Nov-08 20:30N 51°42' W 005°02'0 0.0
2017-Nov-08 19:59N 51°42' W 005°02'  

Dump ship's entire track history